Time;durP1;ratioP1;P1;durP2;ratioP2;P2;SDS_P1;SDS_P2;PMS_P1;PMS_P2;Temp;Humidity;BMP_temperature;BMP_pressure;BME280_temperature;BME280_humidity;BME280_pressure;Samples;Min_cycle;Max_cycle;Signal;HPM_P1;HPM_P2
2023/07/14 04:30:08;;;;;;;7.90;3.83;;;18.80;74.70;;;;;;6051199;23;20100;31
2023/07/14 04:32:34;;;;;;;8.23;3.53;;;18.80;75.20;;;;;;4900590;29;20132;-76
2023/07/14 04:34:59;;;;;;;6.93;3.28;;;18.80;75.60;;;;;;4903127;29;20028;-76
2023/07/14 04:37:25;;;;;;;6.03;3.47;;;18.90;75.00;;;;;;4906146;29;20033;-75
2023/07/14 04:39:51;;;;;;;6.10;3.13;;;18.90;74.90;;;;;;4906060;29;20032;-75
2023/07/14 04:42:16;;;;;;;8.05;3.58;;;18.90;75.20;;;;;;4905631;29;20055;-76
2023/07/14 04:44:42;;;;;;;7.05;3.20;;;18.90;75.00;;;;;;4904994;29;20098;-76
2023/07/14 04:47:08;;;;;;;6.80;3.05;;;18.80;75.10;;;;;;4905252;29;20024;-75
2023/07/14 04:49:34;;;;;;;7.30;3.75;;;18.80;74.80;;;;;;4906071;29;20028;-76
2023/07/14 04:52:00;;;;;;;8.57;3.28;;;18.80;74.80;;;;;;4906102;29;20024;-76
2023/07/14 04:54:26;;;;;;;6.65;3.13;;;18.80;75.00;;;;;;4906134;29;20375;-75
2023/07/14 04:56:52;;;;;;;9.52;3.08;;;18.90;75.30;;;;;;4905569;29;20036;-76
2023/07/14 04:59:18;;;;;;;8.02;3.10;;;18.80;75.10;;;;;;4906220;29;20033;-75
2023/07/14 05:01:43;;;;;;;6.55;3.10;;;18.80;75.20;;;;;;4901639;29;20040;-75
2023/07/14 05:04:09;;;;;;;7.35;3.65;;;18.80;75.40;;;;;;4905864;29;20033;-75
2023/07/14 05:06:35;;;;;;;6.85;3.33;;;18.80;75.50;;;;;;4905598;29;20520;-75
2023/07/14 05:09:00;;;;;;;6.53;2.90;;;18.70;75.70;;;;;;4906064;29;20551;-75
2023/07/14 05:11:27;;;;;;;12.75;3.35;;;18.70;75.70;;;;;;4889975;29;20031;-75
2023/07/14 05:13:53;;;;;;;6.47;3.28;;;18.60;75.80;;;;;;4906147;29;20033;-75
2023/07/14 05:16:19;;;;;;;7.72;3.55;;;18.60;75.90;;;;;;4906012;29;20033;-75
2023/07/14 05:18:46;;;;;;;5.65;2.97;;;18.70;75.60;;;;;;4905521;29;20044;-75
2023/07/14 05:21:12;;;;;;;9.73;2.95;;;18.70;75.30;;;;;;4904038;29;20029;-76
2023/07/14 05:23:37;;;;;;;5.78;2.42;;;18.80;75.40;;;;;;4901785;29;20027;-75
2023/07/14 05:26:03;;;;;;;7.40;2.88;;;18.70;75.20;;;;;;4903163;29;20043;-75
2023/07/14 05:28:29;;;;;;;5.25;2.60;;;18.80;75.20;;;;;;4902061;29;20035;-75
2023/07/14 05:30:55;;;;;;;6.97;2.78;;;18.80;75.00;;;;;;4909301;29;20055;-75
2023/07/14 05:33:21;;;;;;;12.68;2.70;;;18.90;74.60;;;;;;4920834;29;20028;-75
2023/07/14 05:35:48;;;;;;;4.90;2.72;;;18.90;74.30;;;;;;4921627;29;20744;-75
2023/07/14 05:38:14;;;;;;;5.38;2.40;;;18.80;74.20;;;;;;4919683;29;20036;-75
2023/07/14 05:40:40;;;;;;;9.35;2.58;;;18.80;74.30;;;;;;4921633;29;20483;-75
2023/07/14 05:43:06;;;;;;;5.95;2.65;;;18.90;74.20;;;;;;4921692;29;20059;-75
2023/07/14 05:45:31;;;;;;;6.13;2.67;;;18.90;73.70;;;;;;4921185;29;20735;-75
2023/07/14 05:47:57;;;;;;;6.90;2.63;;;18.90;73.70;;;;;;4921567;29;20060;-75
2023/07/14 05:50:23;;;;;;;4.85;2.42;;;19.00;73.90;;;;;;4904573;29;20024;-75
2023/07/14 05:52:49;;;;;;;5.10;2.70;;;19.00;73.40;;;;;;4921452;29;20027;-75
2023/07/14 05:55:14;;;;;;;5.88;2.75;;;19.00;73.70;;;;;;4921447;29;20050;-90
2023/07/14 05:57:40;;;;;;;4.88;2.47;;;19.10;73.30;;;;;;4904855;29;20028;-85
2023/07/14 06:00:16;;;;;;;7.05;2.45;;;19.00;72.60;;;;;;4901227;29;20032;-88
2023/07/14 06:02:44;;;;;;;6.15;2.53;;;19.00;72.80;;;;;;4919350;29;20033;-89
2023/07/14 06:05:11;;;;;;;8.05;3.30;;;19.20;72.70;;;;;;4904004;29;20082;-84
2023/07/14 06:07:38;;;;;;;6.82;2.88;;;19.20;72.40;;;;;;4920917;29;20095;-87
2023/07/14 06:10:04;;;;;;;4.88;2.40;;;19.10;71.90;;;;;;4921208;29;20032;-89
2023/07/14 06:12:30;;;;;;;8.02;2.58;;;19.20;72.00;;;;;;4919761;29;20094;-88
2023/07/14 06:14:55;;;;;;;5.13;2.15;;;19.40;72.00;;;;;;4920874;29;20036;-89
2023/07/14 06:17:21;;;;;;;7.45;3.00;;;19.40;71.10;;;;;;4904749;29;20028;-90
2023/07/14 06:19:47;;;;;;;5.38;2.10;;;19.60;70.60;;;;;;4921262;29;20032;-90
2023/07/14 06:22:13;;;;;;;6.18;2.40;;;19.50;70.20;;;;;;4903014;29;20044;-87
2023/07/14 06:24:40;;;;;;;8.75;2.30;;;19.50;70.90;;;;;;4921450;29;20024;-86
2023/07/14 06:27:06;;;;;;;4.22;2.25;;;19.50;70.90;;;;;;4904434;29;20073;-88
2023/07/14 06:29:33;;;;;;;6.90;2.50;;;19.60;70.80;;;;;;4921473;29;20056;-90
2023/07/14 06:32:00;;;;;;;5.68;2.40;;;19.60;69.90;;;;;;4910249;29;20135;-87
2023/07/14 06:34:26;;;;;;;6.32;2.67;;;19.60;70.10;;;;;;4919443;29;20047;-85
2023/07/14 06:36:52;;;;;;;10.57;2.90;;;19.60;70.20;;;;;;4904129;29;20024;-77
2023/07/14 06:39:18;;;;;;;5.30;2.22;;;19.80;69.60;;;;;;4919633;29;20067;-78
2023/07/14 06:41:44;;;;;;;6.07;2.50;;;19.80;69.50;;;;;;4903789;29;20035;-77
2023/07/14 06:44:10;;;;;;;6.13;2.33;;;19.90;69.60;;;;;;4917866;29;20036;-75
2023/07/14 06:46:36;;;;;;;6.55;2.40;;;19.80;69.30;;;;;;4919541;29;20024;-80
2023/07/14 06:49:03;;;;;;;5.97;2.40;;;19.80;69.10;;;;;;4920702;29;20025;-78
2023/07/14 06:51:29;;;;;;;4.38;2.20;;;19.90;69.10;;;;;;4920577;29;20016;-81
2023/07/14 06:53:55;;;;;;;4.53;2.50;;;19.90;68.40;;;;;;4885695;29;20551;-85
2023/07/14 06:56:20;;;;;;;6.53;2.30;;;20.00;67.60;;;;;;4919257;29;20063;-85
2023/07/14 06:58:46;;;;;;;4.95;2.22;;;20.10;67.70;;;;;;4918321;29;20099;-85
2023/07/14 07:01:12;;;;;;;6.38;2.10;;;20.20;67.30;;;;;;4899719;29;20024;-80
2023/07/14 07:03:37;;;;;;;5.32;2.47;;;20.20;66.90;;;;;;4918662;29;20107;-78
2023/07/14 07:06:03;;;;;;;4.22;1.95;;;20.10;66.50;;;;;;4918654;29;20052;-80
2023/07/14 07:08:29;;;;;;;7.07;2.60;;;20.20;66.60;;;;;;4916329;29;20028;-79
2023/07/14 07:10:55;;;;;;;4.03;2.22;;;20.20;66.80;;;;;;4917052;29;20436;-80
2023/07/14 07:13:21;;;;;;;4.20;2.03;;;20.30;65.90;;;;;;4919577;29;20036;-80
2023/07/14 07:15:46;;;;;;;7.32;2.10;;;20.30;64.60;;;;;;4914857;29;20123;-80
2023/07/14 07:18:12;;;;;;;4.05;2.20;;;20.40;65.40;;;;;;4919917;29;20032;-83
2023/07/14 07:20:42;;;;;;;4.82;2.13;;;20.40;64.60;;;;;;4903170;29;20043;-81
2023/07/14 07:23:08;;;;;;;4.35;2.20;;;20.60;64.70;;;;;;4913100;29;20557;-80
2023/07/14 07:25:34;;;;;;;5.45;2.15;;;20.80;63.70;;;;;;4919424;29;20024;-79
2023/07/14 07:28:00;;;;;;;6.60;2.17;;;20.90;63.70;;;;;;4919310;29;20440;-79
2023/07/14 07:30:25;;;;;;;5.53;1.80;;;20.90;62.90;;;;;;4919051;29;20465;-79
2023/07/14 07:32:51;;;;;;;5.70;2.20;;;20.90;63.50;;;;;;4919649;29;20476;-79
2023/07/14 07:35:17;;;;;;;4.97;2.00;;;21.10;63.20;;;;;;4919553;29;20028;-79
2023/07/14 07:37:44;;;;;;;4.43;2.13;;;21.50;61.60;;;;;;4917756;29;20040;-84
2023/07/14 07:40:11;;;;;;;4.30;2.42;;;21.70;60.40;;;;;;4920090;29;20395;-79
2023/07/14 07:42:38;;;;;;;5.47;2.47;;;23.40;57.40;;;;;;4918287;29;20526;-80
2023/07/14 07:45:04;;;;;;;5.55;2.00;;;26.40;49.60;;;;;;4918494;29;20020;-86
2023/07/14 07:47:33;;;;;;;6.18;2.05;;;27.00;45.90;;;;;;4902778;29;20031;-82
2023/07/14 07:49:58;;;;;;;4.45;1.92;;;26.30;47.60;;;;;;4917985;29;20400;-80
2023/07/14 07:52:24;;;;;;;4.68;2.08;;;25.50;49.50;;;;;;4917171;29;20036;-77
2023/07/14 07:54:50;;;;;;;6.90;1.90;;;24.90;49.70;;;;;;4915629;29;20031;-80
2023/07/14 07:57:15;;;;;;;5.75;1.98;;;24.40;51.70;;;;;;4918385;29;20028;-80
2023/07/14 07:59:41;;;;;;;5.03;1.77;;;24.60;51.60;;;;;;4918626;29;20032;-77
2023/07/14 08:02:07;;;;;;;4.97;1.88;;;25.20;50.20;;;;;;4917569;29;20562;-78
2023/07/14 08:04:33;;;;;;;3.85;1.83;;;25.10;50.40;;;;;;4919130;29;20075;-79
2023/07/14 08:06:59;;;;;;;7.13;2.03;;;24.60;51.20;;;;;;4918383;29;20498;-76
2023/07/14 08:09:25;;;;;;;4.13;1.85;;;24.30;51.80;;;;;;4919196;29;20039;-78
2023/07/14 08:11:56;;;;;;;6.47;2.28;;;24.80;51.10;;;;;;4918625;29;20024;-78
2023/07/14 08:14:22;;;;;;;3.95;1.92;;;25.20;50.60;;;;;;4902358;29;20039;-79
2023/07/14 08:16:48;;;;;;;6.88;1.95;;;25.20;49.20;;;;;;4919183;29;20032;-78
2023/07/14 08:19:14;;;;;;;7.38;4.22;;;25.80;47.30;;;;;;4900431;29;20043;-81
2023/07/14 08:21:40;;;;;;;4.13;2.00;;;27.00;44.70;;;;;;4918657;29;20036;-79
2023/07/14 08:24:06;;;;;;;4.30;1.85;;;27.70;43.20;;;;;;4918880;29;20048;-79
2023/07/14 08:26:33;;;;;;;3.65;1.95;;;27.40;42.80;;;;;;4916417;29;20108;-79
2023/07/14 08:28:59;;;;;;;5.35;2.95;;;27.80;42.50;;;;;;4918112;29;20024;-80
2023/07/14 08:31:25;;;;;;;6.38;2.13;;;29.20;41.00;;;;;;4917028;29;20052;-80
2023/07/14 08:33:51;;;;;;;3.10;1.50;;;30.50;38.70;;;;;;4918965;29;20032;-81
2023/07/14 08:36:17;;;;;;;5.13;2.00;;;31.10;36.10;;;;;;4901148;29;20031;-81
2023/07/14 08:38:43;;;;;;;5.15;2.20;;;31.30;36.20;;;;;;4900074;29;20028;-78
2023/07/14 08:41:09;;;;;;;5.28;1.80;;;31.20;36.30;;;;;;4918305;29;20024;-77
2023/07/14 08:43:34;;;;;;;6.43;1.60;;;30.90;36.40;;;;;;4902064;29;20068;-79
2023/07/14 08:46:09;;;;;;;3.88;2.20;;;30.40;36.70;;;;;;4917234;29;20024;-80
2023/07/14 08:48:42;;;;;;;4.10;3.70;;;31.50;36.20;;;;;;4916495;29;20020;-79
2023/07/14 08:51:22;;;;;;;5.63;2.00;;;30.90;36.80;;;;;;4918916;29;20036;-79
2023/07/14 08:53:57;;;;;;;3.53;1.60;;;30.90;36.80;;;;;;4917555;29;20107;-79
2023/07/14 08:56:24;;;;;;;5.20;1.80;;;30.30;37.50;;;;;;4919482;29;20051;-77
2023/07/14 08:58:52;;;;;;;4.30;1.60;;;30.00;38.10;;;;;;4922698;29;20028;-79
2023/07/14 09:01:40;;;;;;;5.05;1.48;;;29.10;39.00;;;;;;4915260;29;20036;-78
2023/07/14 09:04:14;;;;;;;5.07;1.50;;;28.60;40.10;;;;;;4922075;29;20079;-78
2023/07/14 09:06:41;;;;;;;4.07;1.48;;;28.30;40.90;;;;;;4920262;29;20103;-77
2023/07/14 09:09:16;;;;;;;3.35;1.60;;;28.00;41.60;;;;;;4918011;29;20024;-78
2023/07/14 09:12:11;;;;;;;3.75;1.40;;;27.80;42.20;;;;;;4914029;29;20056;-76
2023/07/14 09:14:49;;;;;;;3.35;1.55;;;27.40;43.40;;;;;;4918042;29;20063;-77
2023/07/14 09:17:29;;;;;;;3.78;1.70;;;27.10;42.90;;;;;;4921140;29;20059;-77
2023/07/14 09:20:24;;;;;;;3.55;1.63;;;26.70;43.40;;;;;;4920353;29;20080;-78
2023/07/14 09:23:13;;;;;;;3.85;2.28;;;26.50;44.20;;;;;;4882906;29;20134;-79
2023/07/14 09:26:08;;;;;;;3.70;1.40;;;26.60;44.50;;;;;;4907943;29;20090;-78
2023/07/14 09:28:36;;;;;;;5.15;2.22;;;26.90;44.10;;;;;;4917056;29;20020;-77
2023/07/14 09:31:05;;;;;;;4.78;1.63;;;26.70;44.40;;;;;;4921479;29;20076;-77
2023/07/14 09:33:46;;;;;;;3.88;1.70;;;26.90;44.60;;;;;;4903933;29;20118;-79
2023/07/14 09:36:12;;;;;;;3.72;1.50;;;27.30;43.70;;;;;;4903462;29;20036;-78
2023/07/14 09:38:47;;;;;;;5.57;3.75;;;27.80;43.00;;;;;;4918631;29;20554;-77
2023/07/14 09:41:16;;;;;;;4.28;1.77;;;28.20;42.80;;;;;;4919628;29;20035;-78
2023/07/14 09:43:43;;;;;;;10.30;9.52;;;28.40;42.70;;;;;;4918296;29;20046;-77
2023/07/14 09:46:13;;;;;;;10.32;9.50;;;29.30;40.70;;;;;;4919816;29;20396;-77
2023/07/14 09:48:44;;;;;;;4.03;1.77;;;29.30;40.30;;;;;;4921045;29;20166;-75
2023/07/14 09:51:15;;;;;;;5.73;3.27;;;29.10;41.00;;;;;;4921206;29;20044;-77
2023/07/14 09:53:58;;;;;;;14.73;13.88;;;29.10;40.20;;;;;;4921003;29;20032;-77
2023/07/14 09:56:29;;;;;;;19.67;18.63;;;30.10;39.60;;;;;;4919007;29;20070;-77
2023/07/14 09:59:01;;;;;;;6.40;3.25;;;30.40;37.60;;;;;;4920097;29;20051;-77
2023/07/14 10:01:29;;;;;;;15.90;14.95;;;30.40;37.70;;;;;;4901848;29;20036;-75
2023/07/14 10:04:06;;;;;;;7.90;2.20;;;31.00;37.50;;;;;;4901606;29;20036;-76
2023/07/14 10:06:32;;;;;;;6.80;6.20;;;31.30;37.50;;;;;;4902773;29;20043;-77
2023/07/14 10:09:04;;;;;;;5.68;2.47;;;31.50;36.50;;;;;;4920398;29;20020;-77
2023/07/14 10:11:46;;;;;;;5.28;2.78;;;31.30;37.20;;;;;;4917135;29;20101;-77
2023/07/14 10:14:36;;;;;;;10.25;9.55;;;31.40;36.80;;;;;;4909338;29;20048;-77
2023/07/14 10:17:04;;;;;;;6.97;3.53;;;30.90;37.10;;;;;;4919836;29;20542;-77
2023/07/14 10:19:41;;;;;;;11.32;10.57;;;31.00;37.60;;;;;;4920297;29;20035;-76
2023/07/14 10:22:09;;;;;;;9.38;7.82;;;31.40;36.60;;;;;;4920242;29;20036;-77
2023/07/14 10:24:37;;;;;;;5.65;1.83;;;31.80;36.20;;;;;;4904815;29;20255;-76
2023/07/14 10:27:15;;;;;;;4.65;2.00;;;30.90;37.50;;;;;;4911068;29;20052;-77
2023/07/14 10:30:13;;;;;;;4.70;2.10;;;30.10;38.90;;;;;;4914996;29;20502;-76
2023/07/14 10:32:49;;;;;;;7.80;5.93;;;29.70;39.30;;;;;;4915452;29;20056;-77
2023/07/14 10:35:28;;;;;;;7.32;2.35;;;29.70;39.00;;;;;;4917532;29;20063;-76
2023/07/14 10:38:04;;;;;;;3.60;2.28;;;30.00;39.10;;;;;;4918681;29;20039;-76
2023/07/14 10:40:37;;;;;;;4.55;2.17;;;30.50;38.50;;;;;;4919275;29;20523;-76
2023/07/14 10:43:15;;;;;;;4.97;2.15;;;30.40;38.40;;;;;;4903300;29;20091;-76
2023/07/14 10:45:46;;;;;;;5.45;2.20;;;30.40;39.50;;;;;;4920075;29;20051;-77
2023/07/14 10:48:21;;;;;;;3.40;1.73;;;30.30;39.90;;;;;;4920008;29;20067;-76
2023/07/14 10:50:58;;;;;;;4.03;2.03;;;29.80;39.20;;;;;;4902592;29;20071;-76
2023/07/14 10:53:41;;;;;;;6.50;2.20;;;29.60;39.60;;;;;;4919310;29;20067;-76
2023/07/14 10:56:22;;;;;;;4.90;2.08;;;29.30;39.40;;;;;;4918891;29;20032;-78
2023/07/14 10:58:54;;;;;;;4.03;1.98;;;29.30;39.70;;;;;;4918149;29;20032;-78
2023/07/14 11:01:34;;;;;;;;;;;29.30;39.70;;;;;;4919408;29;20035;-81
2023/07/14 11:04:25;;;;;;;3.60;1.70;;;29.30;39.60;;;;;;4918163;29;19914;-78
2023/07/14 11:06:54;;;;;;;5.27;1.43;;;29.00;38.80;;;;;;4920976;29;20031;-77
2023/07/14 11:09:19;;;;;;;5.40;2.70;;;28.80;40.10;;;;;;4920151;29;20029;-77
2023/07/14 11:12:03;;;;;;;3.33;1.63;;;28.60;40.30;;;;;;4920990;29;20036;-76
2023/07/14 11:14:53;;;;;;;5.70;2.00;;;29.30;40.70;;;;;;4919971;29;20056;-78
2023/07/14 11:17:25;;;;;;;3.40;1.60;;;29.30;39.80;;;;;;4919260;29;20036;-78
2023/07/14 11:20:03;;;;;;;5.93;2.00;;;29.70;39.50;;;;;;4919584;29;20032;-78
2023/07/14 11:22:47;;;;;;;6.88;2.03;;;29.80;38.50;;;;;;4919759;29;20311;-77
2023/07/14 11:25:23;;;;;;;5.10;2.00;;;29.60;39.50;;;;;;4918728;29;20032;-77
2023/07/14 11:28:24;;;;;;;5.80;1.80;;;29.60;39.00;;;;;;4919418;29;20044;-77
2023/07/14 11:30:54;;;;;;;3.40;1.73;;;29.60;39.00;;;;;;4918661;29;20064;-77
2023/07/14 11:33:35;;;;;;;4.53;1.95;;;29.30;39.20;;;;;;4918507;29;20566;-77
2023/07/14 11:36:04;;;;;;;7.03;2.10;;;29.60;38.60;;;;;;4902643;29;20092;-77
2023/07/14 11:39:22;;;;;;;5.22;2.40;;;29.60;38.30;;;;;;4904310;29;20065;-78
2023/07/14 11:41:48;;;;;;;4.70;2.47;;;29.40;37.60;;;;;;4898392;29;20084;-77
2023/07/14 11:44:20;;;;;;;4.43;2.53;;;29.30;37.20;;;;;;4918931;29;20534;-79
2023/07/14 11:46:47;;;;;;;4.60;2.15;;;29.30;36.30;;;;;;4919464;29;20386;-77
2023/07/14 11:49:31;;;;;;;3.72;1.70;;;29.20;37.60;;;;;;4914345;29;20020;-77
2023/07/14 11:52:12;;;;;;;4.82;2.38;;;29.10;37.10;;;;;;4893251;29;20120;-81
2023/07/14 11:54:53;;;;;;;8.73;2.42;;;29.10;37.90;;;;;;4914038;29;20063;-81
2023/07/14 11:57:20;;;;;;;5.13;1.85;;;29.20;37.70;;;;;;4914786;29;20028;-80
2023/07/14 12:00:18;;;;;;;4.10;1.65;;;28.90;36.40;;;;;;4916211;29;20032;-80
2023/07/14 12:02:50;;;;;;;5.18;1.90;;;28.80;37.60;;;;;;4916848;29;20032;-77
2023/07/14 12:05:19;;;;;;;3.30;1.45;;;28.80;37.30;;;;;;4901350;29;20083;-78
2023/07/14 12:08:07;;;;;;;6.80;2.42;;;28.80;37.40;;;;;;4917987;29;20099;-80
2023/07/14 12:10:38;;;;;;;3.83;1.60;;;28.70;38.70;;;;;;4905141;29;20119;-78
2023/07/14 12:13:20;;;;;;;3.58;1.85;;;28.70;38.30;;;;;;4913679;29;20025;-77
2023/07/14 12:16:03;;;;;;;3.77;1.77;;;28.80;39.60;;;;;;4913784;29;20593;-77
2023/07/14 12:18:54;;;;;;;5.97;2.17;;;28.80;39.60;;;;;;4914260;29;20042;-77
2023/07/14 12:21:29;;;;;;;5.30;2.08;;;28.80;39.30;;;;;;4905042;29;20119;-77
2023/07/14 12:24:22;;;;;;;3.88;1.73;;;29.00;38.90;;;;;;4892642;29;20036;-78
2023/07/14 12:27:00;;;;;;;4.63;1.65;;;29.00;38.60;;;;;;4910070;29;20032;-78
2023/07/14 12:29:28;;;;;;;2.75;1.52;;;28.90;38.60;;;;;;4899317;29;20147;-77
2023/07/14 12:31:56;;;;;;;5.03;2.03;;;29.00;38.20;;;;;;4911695;29;20044;-78
2023/07/14 12:34:27;;;;;;;4.18;1.70;;;29.20;38.10;;;;;;4916345;29;20040;-77
2023/07/14 12:36:52;;;;;;;4.32;2.08;;;29.20;38.30;;;;;;4916948;29;20028;-77
2023/07/14 12:39:18;;;;;;;4.40;2.20;;;29.30;39.00;;;;;;4915061;29;20091;-78
2023/07/14 12:41:49;;;;;;;2.95;1.30;;;29.30;39.30;;;;;;4915318;29;20032;-78
2023/07/14 12:44:31;;;;;;;3.42;1.52;;;29.00;39.50;;;;;;4914964;29;20083;-78
2023/07/14 12:46:58;;;;;;;4.00;1.42;;;28.80;40.50;;;;;;4916153;29;20526;-78
2023/07/14 12:49:40;;;;;;;4.20;1.70;;;28.90;40.50;;;;;;4917859;29;20032;-79
2023/07/14 12:52:12;;;;;;;3.17;1.77;;;29.20;41.00;;;;;;4916999;29;20086;-79
2023/07/14 12:54:43;;;;;;;3.00;1.42;;;29.30;40.30;;;;;;4914024;29;20456;-78
2023/07/14 12:57:13;;;;;;;2.60;1.30;;;29.50;40.30;;;;;;4903475;29;20042;-79
2023/07/14 12:59:39;;;;;;;3.67;2.00;;;29.20;40.20;;;;;;4918891;29;20040;-78
2023/07/14 13:02:11;;;;;;;4.40;1.60;;;29.30;40.60;;;;;;4896468;29;20028;-78
2023/07/14 13:04:37;;;;;;;;;;;29.50;40.40;;;;;;4919039;29;20095;-78
2023/07/14 13:07:26;;;;;;;7.50;1.70;;;29.30;40.70;;;;;;4916093;29;19915;-78
2023/07/14 13:10:25;;;;;;;3.47;2.00;;;29.20;41.00;;;;;;4918758;29;20021;-78
2023/07/14 13:12:52;;;;;;;5.30;2.20;;;28.50;43.70;;;;;;4921408;29;20040;-78
2023/07/14 13:15:21;;;;;;;5.55;2.22;;;28.30;43.80;;;;;;4916537;29;20039;-78
2023/07/14 13:17:48;;;;;;;3.72;1.90;;;28.30;43.50;;;;;;4904420;29;20084;-77
2023/07/14 13:20:24;;;;;;;4.00;1.90;;;28.40;43.10;;;;;;4922026;29;20088;-77
2023/07/14 13:23:07;;;;;;;4.47;1.65;;;28.70;43.80;;;;;;4918786;29;20032;-77
2023/07/14 13:25:33;;;;;;;2.67;1.40;;;28.40;43.00;;;;;;4921478;29;20480;-77
2023/07/14 13:28:06;;;;;;;3.63;1.30;;;28.30;41.40;;;;;;4920797;29;20467;-77
2023/07/14 13:30:32;;;;;;;2.35;1.27;;;28.30;41.00;;;;;;4921265;29;20083;-77
2023/07/14 13:32:58;;;;;;;4.60;1.80;;;27.90;40.60;;;;;;4919946;29;20024;-77
2023/07/14 13:35:28;;;;;;;2.60;1.40;;;28.00;44.50;;;;;;4921339;29;20028;-77
2023/07/14 13:38:02;;;;;;;3.65;1.30;;;27.60;42.00;;;;;;4921045;29;20060;-78
2023/07/14 13:40:35;;;;;;;3.47;1.60;;;27.80;43.20;;;;;;4920760;29;20043;-79
2023/07/14 13:43:02;;;;;;;2.22;1.00;;;28.10;43.40;;;;;;4899316;29;20028;-77
2023/07/14 13:45:33;;;;;;;4.10;1.80;;;27.90;43.10;;;;;;4919401;29;20043;-77
2023/07/14 13:48:02;;;;;;;3.58;1.80;;;28.10;43.90;;;;;;4915476;29;20062;-81
2023/07/14 13:50:28;;;;;;;3.47;1.45;;;28.30;43.40;;;;;;4916391;29;20075;-85
2023/07/14 13:52:53;;;;;;;3.90;1.80;;;28.20;43.20;;;;;;4909933;29;20471;-85
2023/07/14 13:55:22;;;;;;;5.30;1.70;;;28.30;43.80;;;;;;4894938;29;20115;-87
2023/07/14 13:57:49;;;;;;;5.60;2.00;;;28.70;44.10;;;;;;4905784;29;20556;-89
2023/07/14 14:00:17;;;;;;;5.25;1.75;;;28.80;42.40;;;;;;4918085;29;20047;-88
2023/07/14 14:02:49;;;;;;;3.47;1.65;;;28.80;42.50;;;;;;4920379;29;20032;-84
2023/07/14 14:05:26;;;;;;;3.72;1.50;;;28.70;43.00;;;;;;4915025;29;20160;-87
2023/07/14 14:07:53;;;;;;;4.85;2.17;;;28.90;43.10;;;;;;4914911;29;20515;-87
2023/07/14 14:10:22;;;;;;;3.80;2.05;;;28.90;41.10;;;;;;4917996;29;20103;-86
2023/07/14 14:12:48;;;;;;;6.28;1.65;;;28.40;39.40;;;;;;4916391;29;20043;-87
2023/07/14 14:15:16;;;;;;;6.50;1.90;;;28.30;39.70;;;;;;4912786;29;20021;-86
2023/07/14 14:17:44;;;;;;;3.65;1.58;;;28.50;39.30;;;;;;4931017;29;20028;-86
2023/07/14 14:20:18;;;;;;;3.10;1.58;;;28.40;38.90;;;;;;4915451;29;20024;-87
2023/07/14 14:22:45;;;;;;;3.63;1.70;;;28.60;37.90;;;;;;4909688;29;20032;-87
2023/07/14 14:25:19;;;;;;;3.70;1.50;;;28.80;38.00;;;;;;4913986;29;20029;-87
2023/07/14 14:27:46;;;;;;;3.63;1.15;;;28.80;37.00;;;;;;4911651;29;20127;-85
2023/07/14 14:30:12;;;;;;;4.07;1.50;;;28.80;37.50;;;;;;4919114;29;20083;-84
2023/07/14 14:32:38;;;;;;;4.32;1.52;;;28.90;37.10;;;;;;4919622;29;20075;-84
2023/07/14 14:35:23;;;;;;;3.80;1.40;;;29.00;37.70;;;;;;4919578;29;20032;-85
2023/07/14 14:37:51;;;;;;;3.88;1.38;;;28.90;37.00;;;;;;4903393;29;20024;-83
2023/07/14 14:40:17;;;;;;;4.97;1.70;;;28.80;38.10;;;;;;4919778;29;20039;-86
2023/07/14 14:42:44;;;;;;;6.35;1.15;;;28.70;39.20;;;;;;4920176;29;20016;-86
2023/07/14 14:45:29;;;;;;;3.00;1.20;;;28.50;39.10;;;;;;4901770;29;20442;-88
2023/07/14 14:47:55;;;;;;;3.20;1.27;;;28.20;39.60;;;;;;4912728;29;20040;-88
2023/07/14 14:50:24;;;;;;;2.85;1.55;;;27.80;41.00;;;;;;4903553;29;20028;-86
2023/07/14 14:52:51;;;;;;;4.03;1.45;;;27.70;42.60;;;;;;4886249;29;20045;-88
2023/07/14 14:55:19;;;;;;;3.85;1.65;;;27.30;44.00;;;;;;4913096;29;20107;-88
2023/07/14 14:57:49;;;;;;;4.43;2.00;;;27.20;44.50;;;;;;4915040;29;20040;-85
2023/07/14 15:00:18;;;;;;;3.83;1.73;;;27.20;45.80;;;;;;4908693;29;20036;-85
2023/07/14 15:02:43;;;;;;;2.72;1.30;;;27.20;46.40;;;;;;4918007;29;20372;-86
2023/07/14 15:05:20;;;;;;;4.20;2.13;;;27.00;48.40;;;;;;4915329;29;20107;-83
2023/07/14 15:07:50;;;;;;;3.40;1.73;;;26.90;49.30;;;;;;4912296;29;20045;-85
2023/07/14 15:10:17;;;;;;;4.38;2.00;;;26.80;49.90;;;;;;4916458;29;20024;-83
2023/07/14 15:12:46;;;;;;;4.25;2.05;;;26.80;50.00;;;;;;4913464;29;20372;-85
2023/07/14 15:15:27;;;;;;;6.40;2.30;;;26.80;50.70;;;;;;4913525;29;20047;-87
2023/07/14 15:17:53;;;;;;;4.60;2.38;;;26.60;53.80;;;;;;4913940;29;20107;-88
2023/07/14 15:20:20;;;;;;;9.07;2.42;;;26.30;57.50;;;;;;4907807;29;20039;-87
2023/07/14 15:22:45;;;;;;;4.40;2.63;;;25.90;63.10;;;;;;4913004;29;20024;-86
2023/07/14 15:25:13;;;;;;;5.68;2.40;;;25.50;66.50;;;;;;4908544;29;20032;-88
2023/07/14 15:27:40;;;;;;;5.65;2.70;;;25.10;68.40;;;;;;4913340;29;20104;-84
2023/07/14 15:30:16;;;;;;;4.75;2.58;;;24.80;70.40;;;;;;4911690;29;20025;-84
2023/07/14 15:32:42;;;;;;;7.30;2.83;;;24.60;72.00;;;;;;4914791;29;20037;-83
2023/07/14 15:35:17;;;;;;;5.93;2.78;;;24.30;74.00;;;;;;4916201;29;20035;-90
2023/07/14 15:37:45;;;;;;;7.68;2.97;;;24.10;76.20;;;;;;4915288;29;20040;-83
2023/07/14 15:40:16;;;;;;;6.32;2.85;;;23.80;77.10;;;;;;4899188;29;20084;-83
2023/07/14 15:42:42;;;;;;;5.25;2.72;;;23.80;78.40;;;;;;4913571;29;20040;-87
2023/07/14 15:45:23;;;;;;;6.07;2.40;;;23.80;79.30;;;;;;4910706;29;20021;-89
2023/07/14 15:47:49;;;;;;;5.97;2.78;;;23.80;79.20;;;;;;4905239;29;20054;-89
2023/07/14 15:50:15;;;;;;;4.60;2.63;;;23.70;79.90;;;;;;4901360;29;20028;-91
2023/07/14 15:52:53;;;;;;;5.93;2.38;;;23.70;80.30;;;;;;4921688;29;20034;-90
2023/07/14 15:55:24;;;;;;;5.60;2.63;;;24.00;79.10;;;;;;4897842;29;20029;-90
2023/07/14 15:57:51;;;;;;;5.22;2.47;;;24.00;79.10;;;;;;4902399;29;20028;-89
2023/07/14 16:00:19;;;;;;;4.78;2.63;;;23.90;79.40;;;;;;4909203;29;20016;-90
2023/07/14 16:02:49;;;;;;;5.00;2.53;;;24.00;78.80;;;;;;4908461;29;20411;-89
2023/07/14 16:05:19;;;;;;;4.93;2.72;;;24.10;78.80;;;;;;4918902;29;20032;-89
2023/07/14 16:07:56;;;;;;;5.18;2.58;;;24.00;78.90;;;;;;4923468;29;20032;-90
2023/07/14 16:10:22;;;;;;;4.40;2.80;;;24.10;78.80;;;;;;4917527;29;20021;-88
2023/07/14 16:12:49;;;;;;;4.18;2.40;;;24.20;78.30;;;;;;4912116;29;20033;-89
2023/07/14 16:15:27;;;;;;;3.60;1.98;;;24.20;78.90;;;;;;4912100;29;20033;-82
2023/07/14 16:17:54;;;;;;;7.07;2.88;;;24.30;78.70;;;;;;4913363;29;20095;-87
2023/07/14 16:20:20;;;;;;;5.45;2.92;;;24.20;78.50;;;;;;4906252;29;20459;-86
2023/07/14 16:22:52;;;;;;;6.65;2.80;;;24.00;78.80;;;;;;4919217;29;20028;-88
2023/07/14 16:25:20;;;;;;;5.70;2.85;;;23.90;78.40;;;;;;4892135;29;20049;-89
2023/07/14 16:27:47;;;;;;;6.25;2.92;;;23.90;78.70;;;;;;4910713;29;20059;-87
2023/07/14 16:30:19;;;;;;;4.25;2.45;;;23.80;78.40;;;;;;4912879;29;20033;-88
2023/07/14 16:32:46;;;;;;;5.10;2.08;;;23.60;79.40;;;;;;4911671;29;20036;-86
2023/07/14 16:35:20;;;;;;;5.68;2.80;;;23.40;80.10;;;;;;4908864;29;20182;-89
2023/07/14 16:37:50;;;;;;;6.25;2.97;;;23.40;81.40;;;;;;4917116;29;20586;-88
2023/07/14 16:40:24;;;;;;;8.40;3.17;;;23.50;81.50;;;;;;4908431;29;20020;-89
2023/07/14 16:42:58;;;;;;;7.88;3.38;;;23.50;81.40;;;;;;4924625;29;20070;-89
2023/07/14 16:45:26;;;;;;;3.88;2.08;;;23.50;81.90;;;;;;4896861;29;20032;-88
2023/07/14 16:47:53;;;;;;;6.40;2.85;;;23.30;81.20;;;;;;4914026;29;20103;-83
2023/07/14 16:50:21;;;;;;;6.05;3.03;;;23.20;81.50;;;;;;4913333;29;20486;-89
2023/07/14 16:52:48;;;;;;;6.22;2.90;;;23.20;81.90;;;;;;4907696;29;20059;-88
2023/07/14 16:55:26;;;;;;;9.07;3.20;;;23.10;82.00;;;;;;4903713;29;20066;-87
2023/07/14 16:57:56;;;;;;;6.22;3.08;;;23.10;82.30;;;;;;4922844;29;20020;-88
2023/07/14 17:00:27;;;;;;;5.28;2.83;;;23.00;82.80;;;;;;4914448;29;20063;-88
2023/07/14 17:03:13;;;;;;;3.03;1.58;;;23.00;82.80;;;;;;4910534;29;20029;-89
2023/07/14 17:05:39;;;;;;;5.50;2.70;;;22.90;82.20;;;;;;4918750;29;20028;-88
2023/07/14 17:08:17;;;;;;;6.30;2.80;;;22.90;82.30;;;;;;4909907;29;20035;-87
2023/07/14 17:10:42;;;;;;;7.20;3.00;;;22.80;81.90;;;;;;4914505;29;20027;-89
2023/07/14 17:13:14;;;;;;;4.88;2.45;;;22.90;82.30;;;;;;4909851;29;20032;-88
2023/07/14 17:15:41;;;;;;;5.00;2.75;;;23.00;81.90;;;;;;4924255;29;20123;-88
2023/07/14 17:18:19;;;;;;;8.10;2.97;;;23.00;81.60;;;;;;4918157;29;20095;-88
2023/07/14 17:20:46;;;;;;;7.53;2.67;;;23.00;81.70;;;;;;4915166;29;20036;-89
2023/07/14 17:23:25;;;;;;;6.15;2.88;;;23.10;81.60;;;;;;4891869;29;20056;-84
2023/07/14 17:25:53;;;;;;;5.32;2.22;;;23.00;81.40;;;;;;4919920;29;20040;-90
2023/07/14 17:28:21;;;;;;;6.93;2.88;;;22.90;81.60;;;;;;4908899;29;20437;-90
2023/07/14 17:30:52;;;;;;;7.28;3.00;;;23.00;81.50;;;;;;4906714;29;20048;-90
2023/07/14 17:33:20;;;;;;;6.72;3.00;;;22.90;81.90;;;;;;4890644;29;20036;-81
2023/07/14 17:35:47;;;;;;;6.30;2.60;;;22.80;82.30;;;;;;4920397;29;20052;-87